sensor_id;sensor_type;location;lat;lon;timestamp;P1;durP1;ratioP1;P2;durP2;ratioP2
47635;SDS011;33364;50.766;15.338;2022-11-25T00:01:07;9.73;;;4.85;;
47635;SDS011;33364;50.766;15.338;2022-11-25T00:03:36;10.80;;;6.72;;
47635;SDS011;33364;50.766;15.338;2022-11-25T00:08:34;9.40;;;5.72;;
47635;SDS011;33364;50.766;15.338;2022-11-25T00:11:01;12.57;;;6.57;;
47635;SDS011;33364;50.766;15.338;2022-11-25T00:13:27;7.85;;;5.03;;
47635;SDS011;33364;50.766;15.338;2022-11-25T00:15:52;8.00;;;4.47;;
47635;SDS011;33364;50.766;15.338;2022-11-25T00:18:18;6.85;;;3.72;;
47635;SDS011;33364;50.766;15.338;2022-11-25T00:20:44;10.98;;;6.22;;
47635;SDS011;33364;50.766;15.338;2022-11-25T00:23:09;8.73;;;5.55;;
47635;SDS011;33364;50.766;15.338;2022-11-25T00:25:35;8.93;;;5.85;;
47635;SDS011;33364;50.766;15.338;2022-11-25T00:28:00;10.63;;;6.13;;
47635;SDS011;33364;50.766;15.338;2022-11-25T00:30:26;9.75;;;5.65;;
47635;SDS011;33364;50.766;15.338;2022-11-25T00:32:52;8.00;;;5.28;;
47635;SDS011;33364;50.766;15.338;2022-11-25T00:35:18;10.13;;;6.05;;
47635;SDS011;33364;50.766;15.338;2022-11-25T00:37:45;8.95;;;5.30;;
47635;SDS011;33364;50.766;15.338;2022-11-25T00:40:11;9.82;;;5.10;;
47635;SDS011;33364;50.766;15.338;2022-11-25T00:42:37;7.35;;;4.43;;
47635;SDS011;33364;50.766;15.338;2022-11-25T00:45:21;6.78;;;4.00;;
47635;SDS011;33364;50.766;15.338;2022-11-25T00:47:47;7.63;;;4.32;;
47635;SDS011;33364;50.766;15.338;2022-11-25T00:50:12;6.20;;;4.30;;
47635;SDS011;33364;50.766;15.338;2022-11-25T00:52:38;8.18;;;5.05;;
47635;SDS011;33364;50.766;15.338;2022-11-25T00:55:04;6.35;;;4.28;;
47635;SDS011;33364;50.766;15.338;2022-11-25T00:57:29;6.20;;;4.18;;
47635;SDS011;33364;50.766;15.338;2022-11-25T00:59:57;7.70;;;5.13;;
47635;SDS011;33364;50.766;15.338;2022-11-25T01:02:23;7.75;;;4.40;;
47635;SDS011;33364;50.766;15.338;2022-11-25T01:04:49;6.55;;;3.92;;
47635;SDS011;33364;50.766;15.338;2022-11-25T01:07:15;6.43;;;4.10;;
47635;SDS011;33364;50.766;15.338;2022-11-25T01:09:41;7.60;;;4.80;;
47635;SDS011;33364;50.766;15.338;2022-11-25T01:12:07;6.57;;;3.80;;
47635;SDS011;33364;50.766;15.338;2022-11-25T01:14:33;10.35;;;4.53;;
47635;SDS011;33364;50.766;15.338;2022-11-25T01:16:58;7.70;;;3.63;;
47635;SDS011;33364;50.766;15.338;2022-11-25T01:19:24;6.03;;;4.05;;
47635;SDS011;33364;50.766;15.338;2022-11-25T01:21:50;7.25;;;4.38;;
47635;SDS011;33364;50.766;15.338;2022-11-25T01:24:16;6.28;;;4.07;;
47635;SDS011;33364;50.766;15.338;2022-11-25T01:26:41;6.47;;;3.95;;
47635;SDS011;33364;50.766;15.338;2022-11-25T01:29:13;6.25;;;4.25;;
47635;SDS011;33364;50.766;15.338;2022-11-25T01:31:40;8.15;;;4.20;;
47635;SDS011;33364;50.766;15.338;2022-11-25T01:34:09;7.88;;;4.22;;
47635;SDS011;33364;50.766;15.338;2022-11-25T01:36:37;7.53;;;4.20;;
47635;SDS011;33364;50.766;15.338;2022-11-25T01:39:03;6.22;;;3.72;;
47635;SDS011;33364;50.766;15.338;2022-11-25T01:41:29;8.25;;;3.70;;
47635;SDS011;33364;50.766;15.338;2022-11-25T01:44:30;6.50;;;3.60;;
47635;SDS011;33364;50.766;15.338;2022-11-25T01:47:05;4.93;;;2.83;;
47635;SDS011;33364;50.766;15.338;2022-11-25T01:49:39;5.53;;;3.10;;
47635;SDS011;33364;50.766;15.338;2022-11-25T01:55:10;3.83;;;2.95;;
47635;SDS011;33364;50.766;15.338;2022-11-25T01:57:53;6.57;;;3.33;;
47635;SDS011;33364;50.766;15.338;2022-11-25T02:00:24;5.10;;;3.72;;
47635;SDS011;33364;50.766;15.338;2022-11-25T02:02:51;4.40;;;2.83;;
47635;SDS011;33364;50.766;15.338;2022-11-25T02:05:21;4.90;;;3.05;;
47635;SDS011;33364;50.766;15.338;2022-11-25T02:07:53;3.08;;;2.40;;
47635;SDS011;33364;50.766;15.338;2022-11-25T02:10:23;3.35;;;2.33;;
47635;SDS011;33364;50.766;15.338;2022-11-25T02:12:51;5.15;;;2.55;;
47635;SDS011;33364;50.766;15.338;2022-11-25T02:15:18;3.63;;;2.20;;
47635;SDS011;33364;50.766;15.338;2022-11-25T02:17:45;4.25;;;2.50;;
47635;SDS011;33364;50.766;15.338;2022-11-25T02:20:14;2.95;;;1.80;;
47635;SDS011;33364;50.766;15.338;2022-11-25T02:25:30;4.20;;;2.72;;
47635;SDS011;33364;50.766;15.338;2022-11-25T02:28:20;5.65;;;3.25;;
47635;SDS011;33364;50.766;15.338;2022-11-25T02:30:46;7.03;;;3.42;;
47635;SDS011;33364;50.766;15.338;2022-11-25T02:33:13;6.53;;;3.30;;
47635;SDS011;33364;50.766;15.338;2022-11-25T02:35:40;5.30;;;2.90;;
47635;SDS011;33364;50.766;15.338;2022-11-25T02:38:19;3.00;;;2.20;;
47635;SDS011;33364;50.766;15.338;2022-11-25T02:40:56;6.63;;;3.00;;
47635;SDS011;33364;50.766;15.338;2022-11-25T02:43:28;3.72;;;2.65;;
47635;SDS011;33364;50.766;15.338;2022-11-25T02:46:01;5.13;;;2.65;;
47635;SDS011;33364;50.766;15.338;2022-11-25T02:48:27;4.60;;;2.65;;
47635;SDS011;33364;50.766;15.338;2022-11-25T02:50:55;5.75;;;3.38;;
47635;SDS011;33364;50.766;15.338;2022-11-25T02:53:21;6.32;;;2.92;;
47635;SDS011;33364;50.766;15.338;2022-11-25T02:55:47;4.78;;;2.65;;
47635;SDS011;33364;50.766;15.338;2022-11-25T02:58:13;6.57;;;3.08;;
47635;SDS011;33364;50.766;15.338;2022-11-25T03:00:40;8.43;;;2.72;;
47635;SDS011;33364;50.766;15.338;2022-11-25T03:03:06;11.18;;;4.93;;
47635;SDS011;33364;50.766;15.338;2022-11-25T03:05:32;13.63;;;5.05;;
47635;SDS011;33364;50.766;15.338;2022-11-25T03:07:57;8.20;;;4.03;;
47635;SDS011;33364;50.766;15.338;2022-11-25T03:10:23;4.60;;;2.65;;
47635;SDS011;33364;50.766;15.338;2022-11-25T03:12:49;2.97;;;1.95;;
47635;SDS011;33364;50.766;15.338;2022-11-25T03:15:15;3.72;;;2.22;;
47635;SDS011;33364;50.766;15.338;2022-11-25T03:17:41;4.80;;;1.92;;
47635;SDS011;33364;50.766;15.338;2022-11-25T03:20:07;5.55;;;2.92;;
47635;SDS011;33364;50.766;15.338;2022-11-25T03:22:33;5.40;;;3.40;;
47635;SDS011;33364;50.766;15.338;2022-11-25T03:24:59;3.10;;;1.88;;
47635;SDS011;33364;50.766;15.338;2022-11-25T03:27:25;2.97;;;1.75;;
47635;SDS011;33364;50.766;15.338;2022-11-25T03:29:50;3.83;;;1.70;;
47635;SDS011;33364;50.766;15.338;2022-11-25T03:32:16;3.08;;;1.45;;
47635;SDS011;33364;50.766;15.338;2022-11-25T03:34:42;5.38;;;2.67;;
47635;SDS011;33364;50.766;15.338;2022-11-25T03:37:07;5.90;;;2.17;;
47635;SDS011;33364;50.766;15.338;2022-11-25T03:39:33;3.75;;;2.53;;
47635;SDS011;33364;50.766;15.338;2022-11-25T03:41:59;4.07;;;2.88;;
47635;SDS011;33364;50.766;15.338;2022-11-25T03:44:25;4.82;;;2.53;;
47635;SDS011;33364;50.766;15.338;2022-11-25T03:46:51;12.55;;;7.05;;
47635;SDS011;33364;50.766;15.338;2022-11-25T03:49:17;9.00;;;5.47;;
47635;SDS011;33364;50.766;15.338;2022-11-25T03:51:43;6.75;;;2.80;;
47635;SDS011;33364;50.766;15.338;2022-11-25T03:54:08;4.45;;;2.90;;
47635;SDS011;33364;50.766;15.338;2022-11-25T03:56:34;3.40;;;2.58;;
47635;SDS011;33364;50.766;15.338;2022-11-25T03:59:00;5.65;;;2.08;;
47635;SDS011;33364;50.766;15.338;2022-11-25T04:01:25;2.90;;;2.20;;
47635;SDS011;33364;50.766;15.338;2022-11-25T04:03:51;2.53;;;1.80;;
47635;SDS011;33364;50.766;15.338;2022-11-25T04:06:17;3.65;;;2.15;;
47635;SDS011;33364;50.766;15.338;2022-11-25T04:08:44;5.50;;;2.40;;
47635;SDS011;33364;50.766;15.338;2022-11-25T04:11:10;4.35;;;2.63;;
47635;SDS011;33364;50.766;15.338;2022-11-25T04:13:36;5.22;;;2.42;;
47635;SDS011;33364;50.766;15.338;2022-11-25T04:16:02;4.38;;;2.38;;
47635;SDS011;33364;50.766;15.338;2022-11-25T04:18:28;3.80;;;1.92;;
47635;SDS011;33364;50.766;15.338;2022-11-25T04:20:54;6.18;;;1.85;;
47635;SDS011;33364;50.766;15.338;2022-11-25T04:23:19;4.25;;;1.83;;
47635;SDS011;33364;50.766;15.338;2022-11-25T04:25:47;2.85;;;1.98;;
47635;SDS011;33364;50.766;15.338;2022-11-25T04:28:13;3.55;;;2.10;;
47635;SDS011;33364;50.766;15.338;2022-11-25T04:30:39;3.15;;;1.90;;
47635;SDS011;33364;50.766;15.338;2022-11-25T04:33:05;4.25;;;2.08;;
47635;SDS011;33364;50.766;15.338;2022-11-25T04:35:30;4.88;;;2.08;;
47635;SDS011;33364;50.766;15.338;2022-11-25T04:37:56;4.53;;;1.92;;
47635;SDS011;33364;50.766;15.338;2022-11-25T04:40:21;3.63;;;2.10;;
47635;SDS011;33364;50.766;15.338;2022-11-25T04:42:47;4.22;;;1.92;;
47635;SDS011;33364;50.766;15.338;2022-11-25T04:45:16;6.80;;;2.58;;
47635;SDS011;33364;50.766;15.338;2022-11-25T04:47:43;3.45;;;2.20;;
47635;SDS011;33364;50.766;15.338;2022-11-25T04:50:13;4.65;;;2.25;;
47635;SDS011;33364;50.766;15.338;2022-11-25T04:52:41;3.35;;;2.15;;
47635;SDS011;33364;50.766;15.338;2022-11-25T04:55:06;3.13;;;1.90;;
47635;SDS011;33364;50.766;15.338;2022-11-25T04:57:33;4.63;;;1.80;;
47635;SDS011;33364;50.766;15.338;2022-11-25T04:59:58;6.32;;;1.83;;
47635;SDS011;33364;50.766;15.338;2022-11-25T05:02:25;4.13;;;2.17;;
47635;SDS011;33364;50.766;15.338;2022-11-25T05:04:53;4.15;;;2.22;;
47635;SDS011;33364;50.766;15.338;2022-11-25T05:07:21;3.55;;;2.13;;
47635;SDS011;33364;50.766;15.338;2022-11-25T05:09:48;2.97;;;2.05;;
47635;SDS011;33364;50.766;15.338;2022-11-25T05:12:14;10.23;;;6.43;;
47635;SDS011;33364;50.766;15.338;2022-11-25T05:14:42;7.22;;;4.50;;
47635;SDS011;33364;50.766;15.338;2022-11-25T05:17:12;5.00;;;3.42;;
47635;SDS011;33364;50.766;15.338;2022-11-25T05:19:41;3.88;;;2.65;;
47635;SDS011;33364;50.766;15.338;2022-11-25T05:22:11;7.30;;;4.25;;
47635;SDS011;33364;50.766;15.338;2022-11-25T05:24:44;4.35;;;2.50;;
47635;SDS011;33364;50.766;15.338;2022-11-25T05:27:09;4.85;;;3.10;;
47635;SDS011;33364;50.766;15.338;2022-11-25T05:29:35;5.05;;;3.00;;
47635;SDS011;33364;50.766;15.338;2022-11-25T05:32:02;5.82;;;3.30;;
47635;SDS011;33364;50.766;15.338;2022-11-25T05:34:28;4.65;;;2.78;;
47635;SDS011;33364;50.766;15.338;2022-11-25T05:36:54;7.30;;;3.65;;
47635;SDS011;33364;50.766;15.338;2022-11-25T05:39:20;22.00;;;10.15;;
47635;SDS011;33364;50.766;15.338;2022-11-25T05:41:46;24.73;;;10.82;;
47635;SDS011;33364;50.766;15.338;2022-11-25T05:44:11;17.08;;;7.88;;
47635;SDS011;33364;50.766;15.338;2022-11-25T05:46:37;21.00;;;10.10;;
47635;SDS011;33364;50.766;15.338;2022-11-25T05:49:02;23.52;;;10.82;;
47635;SDS011;33364;50.766;15.338;2022-11-25T05:51:28;15.10;;;7.35;;
47635;SDS011;33364;50.766;15.338;2022-11-25T05:53:54;20.42;;;9.70;;
47635;SDS011;33364;50.766;15.338;2022-11-25T05:56:21;15.10;;;7.18;;
47635;SDS011;33364;50.766;15.338;2022-11-25T05:58:47;16.45;;;8.07;;
47635;SDS011;33364;50.766;15.338;2022-11-25T06:01:14;18.77;;;9.80;;
47635;SDS011;33364;50.766;15.338;2022-11-25T06:03:40;20.58;;;9.32;;
47635;SDS011;33364;50.766;15.338;2022-11-25T06:06:07;31.42;;;15.57;;
47635;SDS011;33364;50.766;15.338;2022-11-25T06:08:34;18.75;;;8.55;;
47635;SDS011;33364;50.766;15.338;2022-11-25T06:11:07;14.35;;;7.43;;
47635;SDS011;33364;50.766;15.338;2022-11-25T06:13:36;8.97;;;4.70;;
47635;SDS011;33364;50.766;15.338;2022-11-25T06:16:12;8.02;;;4.45;;
47635;SDS011;33364;50.766;15.338;2022-11-25T06:18:39;15.55;;;7.50;;
47635;SDS011;33364;50.766;15.338;2022-11-25T06:21:05;20.63;;;9.95;;
47635;SDS011;33364;50.766;15.338;2022-11-25T06:23:32;36.70;;;15.73;;
47635;SDS011;33364;50.766;15.338;2022-11-25T06:26:04;27.88;;;13.23;;
47635;SDS011;33364;50.766;15.338;2022-11-25T06:28:34;17.02;;;9.02;;
47635;SDS011;33364;50.766;15.338;2022-11-25T06:31:05;12.80;;;7.78;;
47635;SDS011;33364;50.766;15.338;2022-11-25T06:33:32;21.42;;;12.68;;
47635;SDS011;33364;50.766;15.338;2022-11-25T06:35:58;21.70;;;12.18;;
47635;SDS011;33364;50.766;15.338;2022-11-25T06:38:23;10.63;;;6.35;;
47635;SDS011;33364;50.766;15.338;2022-11-25T06:40:49;9.68;;;6.50;;
47635;SDS011;33364;50.766;15.338;2022-11-25T06:43:14;13.40;;;5.95;;
47635;SDS011;33364;50.766;15.338;2022-11-25T06:45:40;12.27;;;6.90;;
47635;SDS011;33364;50.766;15.338;2022-11-25T06:48:06;9.77;;;6.05;;
47635;SDS011;33364;50.766;15.338;2022-11-25T06:50:31;8.35;;;5.10;;
47635;SDS011;33364;50.766;15.338;2022-11-25T06:52:59;12.73;;;6.00;;
47635;SDS011;33364;50.766;15.338;2022-11-25T06:55:25;11.60;;;5.60;;
47635;SDS011;33364;50.766;15.338;2022-11-25T06:57:51;10.18;;;5.22;;
47635;SDS011;33364;50.766;15.338;2022-11-25T07:00:17;13.13;;;7.75;;
47635;SDS011;33364;50.766;15.338;2022-11-25T07:02:42;13.88;;;7.35;;
47635;SDS011;33364;50.766;15.338;2022-11-25T07:05:08;16.17;;;8.48;;
47635;SDS011;33364;50.766;15.338;2022-11-25T07:07:34;19.17;;;9.40;;
47635;SDS011;33364;50.766;15.338;2022-11-25T07:10:00;14.85;;;8.48;;
47635;SDS011;33364;50.766;15.338;2022-11-25T07:12:25;10.73;;;5.82;;
47635;SDS011;33364;50.766;15.338;2022-11-25T07:14:51;12.10;;;6.50;;
47635;SDS011;33364;50.766;15.338;2022-11-25T07:17:17;11.45;;;6.35;;
47635;SDS011;33364;50.766;15.338;2022-11-25T07:19:43;10.25;;;6.47;;
47635;SDS011;33364;50.766;15.338;2022-11-25T07:22:09;10.10;;;7.05;;
47635;SDS011;33364;50.766;15.338;2022-11-25T07:24:35;9.63;;;6.47;;
47635;SDS011;33364;50.766;15.338;2022-11-25T07:27:00;13.25;;;7.25;;
47635;SDS011;33364;50.766;15.338;2022-11-25T07:29:28;12.32;;;7.30;;
47635;SDS011;33364;50.766;15.338;2022-11-25T07:31:54;11.90;;;6.90;;
47635;SDS011;33364;50.766;15.338;2022-11-25T07:34:20;12.95;;;8.25;;
47635;SDS011;33364;50.766;15.338;2022-11-25T07:36:46;11.88;;;7.60;;
47635;SDS011;33364;50.766;15.338;2022-11-25T07:39:15;14.75;;;7.32;;
47635;SDS011;33364;50.766;15.338;2022-11-25T07:41:42;11.27;;;6.50;;
47635;SDS011;33364;50.766;15.338;2022-11-25T07:44:09;11.75;;;7.85;;
47635;SDS011;33364;50.766;15.338;2022-11-25T07:46:42;10.48;;;6.75;;
47635;SDS011;33364;50.766;15.338;2022-11-25T07:49:10;10.57;;;5.82;;
47635;SDS011;33364;50.766;15.338;2022-11-25T07:51:38;9.43;;;5.78;;
47635;SDS011;33364;50.766;15.338;2022-11-25T07:54:26;10.40;;;5.97;;
47635;SDS011;33364;50.766;15.338;2022-11-25T07:56:52;15.18;;;8.55;;
47635;SDS011;33364;50.766;15.338;2022-11-25T07:59:19;17.50;;;8.55;;
47635;SDS011;33364;50.766;15.338;2022-11-25T08:01:47;13.75;;;7.00;;
47635;SDS011;33364;50.766;15.338;2022-11-25T08:04:14;15.88;;;8.45;;
47635;SDS011;33364;50.766;15.338;2022-11-25T08:06:41;13.40;;;6.90;;
47635;SDS011;33364;50.766;15.338;2022-11-25T08:09:09;14.25;;;6.10;;
47635;SDS011;33364;50.766;15.338;2022-11-25T08:11:37;16.58;;;7.60;;
47635;SDS011;33364;50.766;15.338;2022-11-25T08:14:03;13.90;;;7.13;;
47635;SDS011;33364;50.766;15.338;2022-11-25T08:16:30;22.63;;;9.75;;
47635;SDS011;33364;50.766;15.338;2022-11-25T08:19:00;15.70;;;9.90;;
47635;SDS011;33364;50.766;15.338;2022-11-25T08:21:27;15.80;;;8.63;;
47635;SDS011;33364;50.766;15.338;2022-11-25T08:23:53;15.93;;;8.43;;
47635;SDS011;33364;50.766;15.338;2022-11-25T08:28:46;12.75;;;7.70;;
47635;SDS011;33364;50.766;15.338;2022-11-25T08:31:14;15.20;;;8.25;;
47635;SDS011;33364;50.766;15.338;2022-11-25T08:33:51;12.60;;;6.75;;
47635;SDS011;33364;50.766;15.338;2022-11-25T08:36:17;16.75;;;7.82;;
47635;SDS011;33364;50.766;15.338;2022-11-25T08:38:45;15.27;;;7.63;;
47635;SDS011;33364;50.766;15.338;2022-11-25T08:41:20;12.73;;;7.32;;
47635;SDS011;33364;50.766;15.338;2022-11-25T08:43:51;13.20;;;7.03;;
47635;SDS011;33364;50.766;15.338;2022-11-25T08:46:19;13.70;;;7.40;;
47635;SDS011;33364;50.766;15.338;2022-11-25T08:48:47;13.80;;;6.65;;
47635;SDS011;33364;50.766;15.338;2022-11-25T08:51:18;12.98;;;6.90;;
47635;SDS011;33364;50.766;15.338;2022-11-25T08:53:46;10.65;;;6.32;;
47635;SDS011;33364;50.766;15.338;2022-11-25T08:56:13;13.82;;;7.72;;
47635;SDS011;33364;50.766;15.338;2022-11-25T08:58:39;14.45;;;8.00;;
47635;SDS011;33364;50.766;15.338;2022-11-25T09:01:05;14.07;;;7.18;;
47635;SDS011;33364;50.766;15.338;2022-11-25T09:03:36;14.00;;;7.30;;
47635;SDS011;33364;50.766;15.338;2022-11-25T09:06:04;18.33;;;8.88;;
47635;SDS011;33364;50.766;15.338;2022-11-25T09:08:32;18.02;;;8.55;;
47635;SDS011;33364;50.766;15.338;2022-11-25T09:10:58;11.30;;;7.20;;
47635;SDS011;33364;50.766;15.338;2022-11-25T09:13:24;13.95;;;8.23;;
47635;SDS011;33364;50.766;15.338;2022-11-25T09:15:50;20.42;;;8.57;;
47635;SDS011;33364;50.766;15.338;2022-11-25T09:18:19;15.10;;;7.90;;
47635;SDS011;33364;50.766;15.338;2022-11-25T09:20:49;22.85;;;12.45;;
47635;SDS011;33364;50.766;15.338;2022-11-25T09:23:15;35.35;;;21.23;;
47635;SDS011;33364;50.766;15.338;2022-11-25T09:25:40;36.17;;;21.05;;
47635;SDS011;33364;50.766;15.338;2022-11-25T09:28:06;17.17;;;10.63;;
47635;SDS011;33364;50.766;15.338;2022-11-25T09:30:33;19.38;;;9.75;;
47635;SDS011;33364;50.766;15.338;2022-11-25T09:32:59;24.25;;;13.93;;
47635;SDS011;33364;50.766;15.338;2022-11-25T09:35:25;33.60;;;20.02;;
47635;SDS011;33364;50.766;15.338;2022-11-25T09:37:52;33.00;;;19.52;;
47635;SDS011;33364;50.766;15.338;2022-11-25T09:40:19;39.97;;;22.15;;
47635;SDS011;33364;50.766;15.338;2022-11-25T09:46:08;22.17;;;10.50;;
47635;SDS011;33364;50.766;15.338;2022-11-25T09:51:22;26.52;;;12.88;;
47635;SDS011;33364;50.766;15.338;2022-11-25T09:53:53;23.88;;;12.95;;
47635;SDS011;33364;50.766;15.338;2022-11-25T09:58:58;17.60;;;11.02;;
47635;SDS011;33364;50.766;15.338;2022-11-25T10:01:30;27.90;;;14.82;;
47635;SDS011;33364;50.766;15.338;2022-11-25T10:04:05;38.75;;;18.75;;
47635;SDS011;33364;50.766;15.338;2022-11-25T10:06:44;54.72;;;24.63;;
47635;SDS011;33364;50.766;15.338;2022-11-25T10:09:16;46.35;;;21.75;;
47635;SDS011;33364;50.766;15.338;2022-11-25T10:11:53;40.30;;;18.95;;
47635;SDS011;33364;50.766;15.338;2022-11-25T10:14:28;27.00;;;13.73;;
47635;SDS011;33364;50.766;15.338;2022-11-25T10:22:22;28.52;;;13.65;;
47635;SDS011;33364;50.766;15.338;2022-11-25T10:24:50;31.85;;;14.70;;
47635;SDS011;33364;50.766;15.338;2022-11-25T10:27:30;28.80;;;14.70;;
47635;SDS011;33364;50.766;15.338;2022-11-25T10:30:11;19.73;;;12.30;;
47635;SDS011;33364;50.766;15.338;2022-11-25T10:32:39;24.08;;;12.18;;
47635;SDS011;33364;50.766;15.338;2022-11-25T10:35:13;24.02;;;12.50;;
47635;SDS011;33364;50.766;15.338;2022-11-25T10:37:45;26.98;;;14.15;;
47635;SDS011;33364;50.766;15.338;2022-11-25T10:40:19;25.60;;;13.50;;
47635;SDS011;33364;50.766;15.338;2022-11-25T10:42:45;23.85;;;12.63;;
47635;SDS011;33364;50.766;15.338;2022-11-25T10:45:11;30.52;;;14.73;;
47635;SDS011;33364;50.766;15.338;2022-11-25T10:52:59;18.05;;;11.05;;
47635;SDS011;33364;50.766;15.338;2022-11-25T10:55:33;19.65;;;9.65;;
47635;SDS011;33364;50.766;15.338;2022-11-25T10:57:59;15.05;;;8.73;;
47635;SDS011;33364;50.766;15.338;2022-11-25T11:00:50;18.08;;;7.15;;
47635;SDS011;33364;50.766;15.338;2022-11-25T11:03:27;15.45;;;6.70;;
47635;SDS011;33364;50.766;15.338;2022-11-25T11:05:53;12.60;;;7.72;;
47635;SDS011;33364;50.766;15.338;2022-11-25T11:10:46;20.63;;;9.55;;
47635;SDS011;33364;50.766;15.338;2022-11-25T11:13:32;18.42;;;8.50;;
47635;SDS011;33364;50.766;15.338;2022-11-25T11:15:57;11.10;;;6.63;;
47635;SDS011;33364;50.766;15.338;2022-11-25T11:21:03;20.73;;;11.07;;
47635;SDS011;33364;50.766;15.338;2022-11-25T11:23:30;22.00;;;12.18;;
47635;SDS011;33364;50.766;15.338;2022-11-25T11:26:29;26.10;;;15.48;;
47635;SDS011;33364;50.766;15.338;2022-11-25T11:31:47;27.35;;;15.93;;
47635;SDS011;33364;50.766;15.338;2022-11-25T11:42:28;33.75;;;16.85;;
47635;SDS011;33364;50.766;15.338;2022-11-25T11:50:45;19.03;;;12.73;;
47635;SDS011;33364;50.766;15.338;2022-11-25T11:59:17;25.27;;;13.93;;
47635;SDS011;33364;50.766;15.338;2022-11-25T12:08:08;23.33;;;12.93;;
47635;SDS011;33364;50.766;15.338;2022-11-25T12:21:07;19.10;;;10.25;;
47635;SDS011;33364;50.766;15.338;2022-11-25T12:29:12;34.38;;;19.25;;
47635;SDS011;33364;50.766;15.338;2022-11-25T12:31:52;18.45;;;11.55;;
47635;SDS011;33364;50.766;15.338;2022-11-25T12:34:27;19.63;;;11.30;;
47635;SDS011;33364;50.766;15.338;2022-11-25T12:37:04;27.13;;;17.88;;
47635;SDS011;33364;50.766;15.338;2022-11-25T12:39:41;27.35;;;17.63;;
47635;SDS011;33364;50.766;15.338;2022-11-25T12:42:18;23.55;;;16.33;;
47635;SDS011;33364;50.766;15.338;2022-11-25T12:47:28;20.90;;;13.35;;
47635;SDS011;33364;50.766;15.338;2022-11-25T12:49:54;21.70;;;15.27;;
47635;SDS011;33364;50.766;15.338;2022-11-25T12:55:00;24.70;;;11.80;;
47635;SDS011;33364;50.766;15.338;2022-11-25T13:16:44;23.55;;;12.57;;
47635;SDS011;33364;50.766;15.338;2022-11-25T13:19:15;21.83;;;11.15;;
47635;SDS011;33364;50.766;15.338;2022-11-25T13:21:59;18.77;;;10.02;;
47635;SDS011;33364;50.766;15.338;2022-11-25T13:24:28;22.50;;;11.32;;
47635;SDS011;33364;50.766;15.338;2022-11-25T13:27:05;19.13;;;9.73;;
47635;SDS011;33364;50.766;15.338;2022-11-25T13:30:00;31.95;;;18.80;;
47635;SDS011;33364;50.766;15.338;2022-11-25T13:37:46;28.92;;;16.45;;
47635;SDS011;33364;50.766;15.338;2022-11-25T13:42:47;24.20;;;15.95;;
47635;SDS011;33364;50.766;15.338;2022-11-25T13:45:24;31.52;;;18.23;;
47635;SDS011;33364;50.766;15.338;2022-11-25T13:48:06;17.00;;;8.45;;
47635;SDS011;33364;50.766;15.338;2022-11-25T13:50:40;18.70;;;10.60;;
47635;SDS011;33364;50.766;15.338;2022-11-25T13:53:06;16.80;;;10.05;;
47635;SDS011;33364;50.766;15.338;2022-11-25T13:55:44;16.40;;;10.43;;
47635;SDS011;33364;50.766;15.338;2022-11-25T13:58:15;18.83;;;10.02;;
47635;SDS011;33364;50.766;15.338;2022-11-25T14:15:29;18.77;;;12.40;;
47635;SDS011;33364;50.766;15.338;2022-11-25T14:26:31;23.63;;;12.98;;
47635;SDS011;33364;50.766;15.338;2022-11-25T14:29:01;21.85;;;13.07;;
47635;SDS011;33364;50.766;15.338;2022-11-25T14:31:39;27.45;;;14.50;;
47635;SDS011;33364;50.766;15.338;2022-11-25T14:36:43;18.73;;;10.77;;
47635;SDS011;33364;50.766;15.338;2022-11-25T14:39:24;17.15;;;9.77;;
47635;SDS011;33364;50.766;15.338;2022-11-25T14:42:13;18.17;;;9.55;;
47635;SDS011;33364;50.766;15.338;2022-11-25T14:44:46;19.42;;;10.70;;
47635;SDS011;33364;50.766;15.338;2022-11-25T14:47:14;27.25;;;13.45;;
47635;SDS011;33364;50.766;15.338;2022-11-25T14:49:47;25.25;;;13.88;;
47635;SDS011;33364;50.766;15.338;2022-11-25T14:54:57;23.55;;;13.82;;
47635;SDS011;33364;50.766;15.338;2022-11-25T14:57:25;24.42;;;13.35;;
47635;SDS011;33364;50.766;15.338;2022-11-25T14:59:53;19.90;;;13.50;;
47635;SDS011;33364;50.766;15.338;2022-11-25T15:02:30;19.48;;;12.25;;
47635;SDS011;33364;50.766;15.338;2022-11-25T15:05:02;22.50;;;13.27;;
47635;SDS011;33364;50.766;15.338;2022-11-25T15:07:30;24.15;;;13.88;;
47635;SDS011;33364;50.766;15.338;2022-11-25T15:09:56;23.65;;;12.50;;
47635;SDS011;33364;50.766;15.338;2022-11-25T15:12:28;22.05;;;13.88;;
47635;SDS011;33364;50.766;15.338;2022-11-25T15:14:57;24.40;;;14.68;;
47635;SDS011;33364;50.766;15.338;2022-11-25T15:17:30;24.08;;;14.18;;
47635;SDS011;33364;50.766;15.338;2022-11-25T15:20:03;17.23;;;11.15;;
47635;SDS011;33364;50.766;15.338;2022-11-25T15:22:36;24.02;;;15.23;;
47635;SDS011;33364;50.766;15.338;2022-11-25T15:25:06;21.83;;;14.40;;
47635;SDS011;33364;50.766;15.338;2022-11-25T15:27:42;20.38;;;13.07;;
47635;SDS011;33364;50.766;15.338;2022-11-25T15:32:48;20.55;;;11.00;;
47635;SDS011;33364;50.766;15.338;2022-11-25T15:35:17;17.35;;;11.35;;
47635;SDS011;33364;50.766;15.338;2022-11-25T15:37:51;20.05;;;11.10;;
47635;SDS011;33364;50.766;15.338;2022-11-25T15:40:29;20.00;;;12.20;;
47635;SDS011;33364;50.766;15.338;2022-11-25T15:43:19;19.10;;;12.00;;
47635;SDS011;33364;50.766;15.338;2022-11-25T15:45:48;19.33;;;12.98;;
47635;SDS011;33364;50.766;15.338;2022-11-25T15:48:59;16.67;;;11.18;;
47635;SDS011;33364;50.766;15.338;2022-11-25T15:51:30;18.60;;;11.60;;
47635;SDS011;33364;50.766;15.338;2022-11-25T15:54:04;21.73;;;12.48;;
47635;SDS011;33364;50.766;15.338;2022-11-25T15:56:55;20.67;;;12.45;;
47635;SDS011;33364;50.766;15.338;2022-11-25T15:59:37;24.30;;;15.00;;
47635;SDS011;33364;50.766;15.338;2022-11-25T16:02:26;25.20;;;14.95;;
47635;SDS011;33364;50.766;15.338;2022-11-25T16:18:39;24.17;;;13.98;;
47635;SDS011;33364;50.766;15.338;2022-11-25T16:21:24;23.50;;;15.45;;
47635;SDS011;33364;50.766;15.338;2022-11-25T16:26:36;15.00;;;8.73;;
47635;SDS011;33364;50.766;15.338;2022-11-25T16:29:15;21.55;;;11.68;;
47635;SDS011;33364;50.766;15.338;2022-11-25T16:31:43;20.77;;;12.23;;
47635;SDS011;33364;50.766;15.338;2022-11-25T16:34:16;22.20;;;13.35;;
47635;SDS011;33364;50.766;15.338;2022-11-25T16:36:43;21.40;;;12.90;;
47635;SDS011;33364;50.766;15.338;2022-11-25T16:39:09;25.33;;;13.73;;
47635;SDS011;33364;50.766;15.338;2022-11-25T16:41:35;21.48;;;13.40;;
47635;SDS011;33364;50.766;15.338;2022-11-25T16:44:04;38.92;;;19.30;;
47635;SDS011;33364;50.766;15.338;2022-11-25T16:46:42;36.83;;;19.35;;
47635;SDS011;33364;50.766;15.338;2022-11-25T16:49:15;32.05;;;17.70;;
47635;SDS011;33364;50.766;15.338;2022-11-25T16:51:42;75.20;;;37.28;;
47635;SDS011;33364;50.766;15.338;2022-11-25T16:54:08;66.95;;;36.40;;
47635;SDS011;33364;50.766;15.338;2022-11-25T16:56:35;66.72;;;36.08;;
47635;SDS011;33364;50.766;15.338;2022-11-25T16:59:03;63.97;;;35.92;;
47635;SDS011;33364;50.766;15.338;2022-11-25T17:01:29;73.25;;;37.70;;
47635;SDS011;33364;50.766;15.338;2022-11-25T17:03:58;49.55;;;30.23;;
47635;SDS011;33364;50.766;15.338;2022-11-25T17:06:24;48.90;;;27.27;;
47635;SDS011;33364;50.766;15.338;2022-11-25T17:08:51;39.50;;;22.88;;
47635;SDS011;33364;50.766;15.338;2022-11-25T17:11:22;36.65;;;21.13;;
47635;SDS011;33364;50.766;15.338;2022-11-25T17:13:54;36.20;;;23.30;;